createdAt,value
2023-04-21T00:02:46.787Z,97800.72
2023-04-21T00:07:48.754Z,97791.75
2023-04-21T00:12:50.715Z,97793.25
2023-04-21T00:17:52.651Z,97778.47
2023-04-21T00:22:55.749Z,97769.69
2023-04-21T00:27:57.644Z,97767.78
2023-04-21T00:32:59.548Z,97776.59
2023-04-21T00:38:01.481Z,97774.72
2023-04-21T00:43:06.636Z,97768.47
2023-04-21T00:48:08.495Z,97757.50
2023-04-21T00:53:11.094Z,97757.78
2023-04-21T00:58:12.932Z,97745.72
2023-04-21T01:03:15.988Z,97748.56
2023-04-21T01:08:17.889Z,97746.66
2023-04-21T01:13:22.113Z,97746.63
2023-04-21T01:18:23.954Z,97745.94
2023-04-21T01:23:25.842Z,97742.53
2023-04-21T01:28:27.722Z,97742.56
2023-04-21T01:33:29.784Z,97751.94
2023-04-21T01:38:33.187Z,97743.94
2023-04-21T01:43:35.328Z,97744.19
2023-04-21T01:48:37.237Z,97743.09
2023-04-21T01:53:41.122Z,97744.38
2023-04-21T01:58:42.939Z,97750.75
2023-04-21T02:03:46.426Z,97751.81
2023-04-21T02:08:49.386Z,97750.19
2023-04-21T02:13:53.504Z,97749.53
2023-04-21T02:18:59.828Z,97737.97
2023-04-21T02:24:02.220Z,97740.66
2023-04-21T02:29:04.076Z,97738.63
2023-04-21T02:34:05.957Z,97749.16
2023-04-21T02:39:07.818Z,97743.03
2023-04-21T02:44:09.616Z,97747.41
2023-04-21T02:49:11.463Z,97748.09
2023-04-21T02:54:13.275Z,97749.06
2023-04-21T02:59:18.168Z,97750.41
2023-04-21T03:04:20.531Z,97750.53
2023-04-21T03:09:22.422Z,97746.22
2023-04-21T03:14:24.294Z,97743.94
2023-04-21T03:19:26.152Z,97751.19
2023-04-21T03:24:28.031Z,97746.06
2023-04-21T03:29:29.886Z,97745.00
2023-04-21T03:34:31.978Z,97743.25
2023-04-21T03:39:36.238Z,97745.69
2023-04-21T03:44:38.100Z,97743.38
2023-04-21T03:49:39.919Z,97741.63
2023-04-21T03:54:41.713Z,97738.09
2023-04-21T03:59:43.994Z,97730.78
2023-04-21T04:04:46.147Z,97738.81
2023-04-21T04:09:48.155Z,97746.66
2023-04-21T04:14:50.065Z,97755.47
2023-04-21T04:19:51.888Z,97750.44
2023-04-21T04:24:53.745Z,97748.84
2023-04-21T04:29:55.557Z,97743.84
2023-04-21T04:34:57.530Z,97748.56
2023-04-21T04:39:59.703Z,97749.09
2023-04-21T04:45:02.008Z,97744.84
2023-04-21T04:50:05.086Z,97747.38
2023-04-21T04:55:08.236Z,97745.53
2023-04-21T05:00:11.528Z,97751.03
2023-04-21T05:05:13.557Z,97747.41
2023-04-21T05:10:15.500Z,97748.47
2023-04-21T05:15:18.319Z,97748.81
2023-04-21T05:20:20.125Z,97757.97
2023-04-21T05:25:21.909Z,97763.53
2023-04-21T05:30:23.811Z,97764.78
2023-04-21T05:35:25.747Z,97771.19
2023-04-21T05:40:27.551Z,97771.72
2023-04-21T05:45:29.379Z,97778.97
2023-04-21T05:50:34.095Z,97767.47
2023-04-21T05:55:36.821Z,97772.03
2023-04-21T06:00:38.632Z,97763.28
2023-04-21T06:05:40.649Z,97761.34
2023-04-21T06:10:42.466Z,97769.44
2023-04-21T06:15:44.318Z,97758.50
2023-04-21T06:20:53.890Z,97760.75
2023-04-21T06:26:06.953Z,97760.78
2023-04-21T06:31:09.978Z,97759.13
2023-04-21T06:36:11.844Z,97756.28
2023-04-21T06:41:13.647Z,97754.38
2023-04-21T06:46:15.698Z,97751.47
2023-04-21T06:51:17.504Z,97743.44
2023-04-21T06:56:19.344Z,97740.00
2023-04-21T07:01:21.156Z,97739.19
2023-04-21T07:06:22.998Z,97737.81
2023-04-21T07:11:24.795Z,97733.09
2023-04-21T07:16:26.675Z,97734.41
2023-04-21T07:21:30.279Z,97739.38
2023-04-21T07:26:32.681Z,97743.22
2023-04-21T07:31:34.577Z,97740.28
2023-04-21T07:36:38.157Z,97736.38
2023-04-21T07:41:40.036Z,97724.31
2023-04-21T07:46:41.908Z,97730.81
2023-04-21T07:51:43.770Z,97733.97
2023-04-21T07:56:45.647Z,97739.81
2023-04-21T08:01:47.504Z,97737.19
2023-04-21T08:06:49.354Z,97729.97
2023-04-21T08:11:51.221Z,97727.56
2023-04-21T08:16:54.066Z,97729.09
2023-04-21T08:21:58.707Z,97740.81
2023-04-21T08:27:02.283Z,97728.09
2023-04-21T08:32:04.498Z,97733.13
2023-04-21T08:37:06.434Z,97735.34
2023-04-21T08:42:08.490Z,97726.50
2023-04-21T08:47:13.987Z,97721.22
2023-04-21T08:52:15.890Z,97728.03
2023-04-21T08:57:17.805Z,97730.56
2023-04-21T09:02:20.368Z,97729.66
2023-04-21T09:07:36.078Z,97731.22
2023-04-21T09:12:40.920Z,97731.09
2023-04-21T09:17:45.983Z,97729.69
2023-04-21T09:22:51.449Z,97719.16
2023-04-21T09:27:54.557Z,97723.19
2023-04-21T09:32:58.349Z,97725.13
2023-04-21T09:38:01.842Z,97723.34
2023-04-21T09:43:03.700Z,97715.13
2023-04-21T09:48:09.611Z,97710.38
2023-04-21T09:53:17.712Z,97722.13
2023-04-21T09:58:24.633Z,97714.56
2023-04-21T10:03:28.798Z,97711.50
2023-04-21T10:08:31.051Z,97721.34
2023-04-21T10:13:33.704Z,97715.44
2023-04-21T10:18:46.313Z,97712.66
2023-04-21T10:23:49.928Z,97707.50
2023-04-21T10:29:00.308Z,97702.78
2023-04-21T10:34:14.132Z,97688.06
2023-04-21T10:39:38.656Z,97689.41
2023-04-21T10:44:58.695Z,97698.56
2023-04-21T10:50:11.806Z,97701.78
2023-04-21T10:55:15.922Z,97696.22
2023-04-21T11:00:21.309Z,97696.41
2023-04-21T11:05:36.443Z,97704.66
2023-04-21T11:10:57.038Z,97694.91
2023-04-21T11:16:01.941Z,97689.75
2023-04-21T11:21:08.903Z,97688.13
2023-04-21T11:26:10.748Z,97689.03
2023-04-21T11:31:12.735Z,97688.25
2023-04-21T11:36:15.057Z,97673.91
2023-04-21T11:41:25.595Z,97680.31
2023-04-21T11:46:28.485Z,97667.97
2023-04-21T11:51:40.652Z,97664.06
2023-04-21T11:56:46.534Z,97673.59
2023-04-21T12:01:50.686Z,97675.16
2023-04-21T12:07:03.111Z,97673.97
2023-04-21T12:12:05.576Z,97671.81
2023-04-21T12:17:07.584Z,97673.63
2023-04-21T12:22:13.978Z,97667.50
2023-04-21T12:27:16.030Z,97660.47
2023-04-21T12:32:17.942Z,97662.81
2023-04-21T12:37:19.814Z,97651.63
2023-04-21T12:42:21.703Z,97652.75
2023-04-21T12:47:23.685Z,97657.09
2023-04-21T12:52:26.272Z,97643.31
2023-04-21T12:57:28.681Z,97641.81
2023-04-21T13:02:37.162Z,97633.56
2023-04-21T13:07:39.497Z,97636.97
2023-04-21T13:12:42.411Z,97632.09
2023-04-21T13:17:44.249Z,97637.91
2023-04-21T13:22:46.532Z,97626.31
2023-04-21T13:27:48.429Z,97622.84
2023-04-21T13:32:50.542Z,97608.94
2023-04-21T13:37:52.523Z,97610.03
2023-04-21T13:42:54.435Z,97601.66
2023-04-21T13:47:58.299Z,97609.06
2023-04-21T13:53:00.307Z,97596.06
2023-04-21T13:58:02.120Z,97583.84
2023-04-21T14:03:04.951Z,97576.81
2023-04-21T14:08:07.372Z,97574.88
2023-04-21T14:13:12.765Z,97568.81
2023-04-21T14:18:19.410Z,97575.06
2023-04-21T14:23:21.331Z,97559.94
2023-04-21T14:28:23.214Z,97565.91
2023-04-21T14:33:25.065Z,97554.00
2023-04-21T14:38:27.093Z,97553.38
2023-04-21T14:43:28.922Z,97549.63
2023-04-21T14:48:31.701Z,97547.31
2023-04-21T14:53:33.524Z,97536.16
2023-04-21T14:58:35.570Z,97540.78
2023-04-21T15:03:37.729Z,97529.44
2023-04-21T15:08:40.836Z,97530.78
2023-04-21T15:13:42.796Z,97533.72
2023-04-21T15:18:44.623Z,97520.47
2023-04-21T15:23:46.625Z,97517.88
2023-04-21T15:28:48.431Z,97517.44
2023-04-21T15:33:50.286Z,97506.78
2023-04-21T15:38:52.169Z,97492.44
2023-04-21T15:43:54.097Z,97493.28
2023-04-21T15:48:56.039Z,97491.31
2023-04-21T15:53:57.913Z,97483.13
2023-04-21T15:58:59.830Z,97489.59
2023-04-21T16:04:01.768Z,97485.59
2023-04-21T16:09:03.843Z,97483.88
2023-04-21T16:14:05.983Z,97479.22
2023-04-21T16:19:07.831Z,97476.31
2023-04-21T16:24:09.821Z,97478.59
2023-04-21T16:29:11.818Z,97469.47
2023-04-21T16:34:13.942Z,97465.09
2023-04-21T16:39:15.955Z,97464.44
2023-04-21T16:44:18.051Z,97463.19
2023-04-21T16:49:19.889Z,97453.84
2023-04-21T16:54:21.713Z,97452.78
2023-04-21T16:59:24.609Z,97452.31
2023-04-21T17:04:26.567Z,97458.34
2023-04-21T17:09:28.540Z,97461.25
2023-04-21T17:14:31.036Z,97459.56
2023-04-21T17:19:32.912Z,97454.81
2023-04-21T17:24:51.718Z,97455.63
2023-04-21T17:29:55.460Z,97455.25
2023-04-21T17:34:57.287Z,97447.25
2023-04-21T17:40:02.418Z,97451.72
2023-04-21T17:45:09.416Z,97450.50
2023-04-21T17:50:12.916Z,97455.78
2023-04-21T17:55:16.030Z,97451.69
2023-04-21T18:00:18.302Z,97454.19
2023-04-21T18:05:20.200Z,97462.50
2023-04-21T18:10:22.960Z,97457.78
2023-04-21T18:15:24.939Z,97453.16
2023-04-21T18:20:26.931Z,97457.38
2023-04-21T18:25:41.375Z,97460.78
2023-04-21T18:30:44.794Z,97461.13
2023-04-21T18:35:46.920Z,97462.69
2023-04-21T18:40:48.836Z,97472.41
2023-04-21T18:45:50.660Z,97471.31
2023-04-21T18:50:52.552Z,97471.00
2023-04-21T18:55:54.373Z,97472.72
2023-04-21T19:00:56.296Z,97472.03
2023-04-21T19:05:58.194Z,97473.06
2023-04-21T19:11:00.071Z,97465.66
2023-04-21T19:16:01.919Z,97473.41
2023-04-21T19:21:05.972Z,97474.34
2023-04-21T19:26:08.757Z,97470.00
2023-04-21T19:31:10.768Z,97471.19
2023-04-21T19:36:12.593Z,97471.72
2023-04-21T19:41:14.496Z,97463.22
2023-04-21T19:46:16.787Z,97461.97
2023-04-21T19:51:19.086Z,97464.56
2023-04-21T19:56:21.332Z,97471.13
2023-04-21T20:01:23.205Z,97460.81
2023-04-21T20:06:25.990Z,97469.81
2023-04-21T20:11:29.097Z,97474.50
2023-04-21T20:16:31.924Z,97476.44
2023-04-21T20:21:34.061Z,97470.25
2023-04-21T20:26:37.034Z,97474.34
2023-04-21T20:31:38.902Z,97469.81
2023-04-21T20:36:40.809Z,97478.81
2023-04-21T20:41:45.733Z,97477.38
2023-04-21T20:46:47.731Z,97479.16
2023-04-21T20:51:59.653Z,97482.56
2023-04-21T20:57:02.029Z,97485.16
2023-04-21T21:02:04.337Z,97482.31
2023-04-21T21:07:06.449Z,97488.66
2023-04-21T21:12:08.401Z,97489.31
2023-04-21T21:17:12.903Z,97495.16
2023-04-21T21:22:15.212Z,97497.72
2023-04-21T21:27:17.246Z,97489.31
2023-04-21T21:32:19.113Z,97489.78
2023-04-21T21:37:21.373Z,97492.38
2023-04-21T21:42:23.249Z,97497.38
2023-04-21T21:47:25.197Z,97495.94
2023-04-21T21:52:28.643Z,97504.91
2023-04-21T21:57:30.603Z,97505.22
2023-04-21T22:02:32.516Z,97507.25
2023-04-21T22:07:37.644Z,97505.13
2023-04-21T22:12:39.587Z,97514.31
2023-04-21T22:17:43.676Z,97505.19
2023-04-21T22:22:45.564Z,97501.28
2023-04-21T22:27:47.377Z,97495.72
2023-04-21T22:32:49.473Z,97507.75
2023-04-21T22:37:51.284Z,97499.72
2023-04-21T22:42:54.733Z,97495.47
2023-04-21T22:47:56.842Z,97503.72
2023-04-21T22:52:58.716Z,97500.66
2023-04-21T22:58:00.551Z,97499.78
2023-04-21T23:03:02.564Z,97508.66
2023-04-21T23:08:04.511Z,97506.47
2023-04-21T23:13:06.891Z,97505.22
2023-04-21T23:18:11.289Z,97503.78
2023-04-21T23:23:13.407Z,97496.41
2023-04-21T23:28:15.304Z,97499.78
2023-04-21T23:33:17.314Z,97496.78
2023-04-21T23:38:19.271Z,97488.66
2023-04-21T23:43:21.082Z,97486.03
2023-04-21T23:48:22.891Z,97482.63
2023-04-21T23:53:24.805Z,97476.31
2023-04-21T23:58:26.626Z,97478.72
